Eden, South Dakota
Current Conditions -  °F | °C
As of 11:35 PM on Tuesday 21 Oct 2014 (Local Time) from KGWR Reporting Station
Clear Clear  
Wind Chill: 57°   Ceiling: Unl
Heat Index: 57°   Visibility: 10mi
Dew Point: 43°   Wind: 15mph
Humidity: 59%   Direction: 140°SE
Pressure: 29.88"   Gusts: NA
Location:  45.62°N, 97.42°W
Report Text: KGWR 220435Z AUTO 14013KT 10SM CLR 14/06 A2988 RMK A01 P000
Loading
Personal Weather Stations






























Interactive Weather Map
Tropical Storm Tracking
New forecast layout! Learn more

10-Day Weather Forecast

Advertisements
Track Severe Weather on mobile